Pagrindinis puslapis
METAR-TAF:

METAR-TAF

Oro uostai :

Palangos oro uostas

Palanga, Lietuva

platuma: 55-55-12N, ilguma: 021-03E, Aukštis: 10 m

Dabartinis oras

Ataskaita buvo paskelbta 22 minutes, ne 21:20 UTC
Vėjas 6 kt iš Rytų
Temperatūra 16°C
Drėgmė 63%
Slėgis 1013 hPa
Matomumas 10 km arba daugiau
nėra debesų žemiau 1500 m ir nėra kamuolinių lietaus debesų

METAR: EYPA 192120Z 09006KT CAVOK 16/09 Q1013

Laikas: 00:42 (21:42 UTC)

Prognozė

Ataskaita buvo paskelbta 4 valandos ir 42 minutes, ne 17:00 UTC
Prognozė galioja nuo 19 metu 18 UTC su 20 metu 18 UTC
Vėjas 5 kt nuo kintamojo kryptimis
Matomumas: 9000 m
Laikinai
nuo 20 metu 12 UTC su 20 metu 18 UTC
Vėjas 15 kt iš Šiaurės Rytų
Su prošvaistėmis ne aukštis 5000 ft, aukštai iškilę kamuoliniai debesys.

TAF: EYPA 191700Z 1918/2018 VRB05KT 9000 NSC TEMPO 2012/2018 04015KT BKN050TCU

Orai ataskaitas ir orų prognozės (METAR, TAF).

turimą stotys yra geltonos ir raudonos taškus žemėlapyje.

Perkelti pele per norėdami pamatyti stoties vardą.

Tada spustelėkite, norėdami matyti oro stebėjimo ir prognozės.

Norėdami pakeisti žemėlapį: spustelėkite ant žalios mygtukų su juodo kryžiaus žemyn,; žalią mygtuką su brūkšneliu, jei norite nutolinti; arba žalių rodyklių gretimoms žemėlapius.


METAR-TAF: